sensor_id;sensor_type;location;lat;lon;timestamp;temperature;humidity
3628;DHT22;1830;49.000;12.074;2024-02-23T00:01:23;8.60;99.90
3628;DHT22;1830;49.000;12.074;2024-02-23T00:03:50;8.60;99.90
3628;DHT22;1830;49.000;12.074;2024-02-23T00:06:19;8.60;99.90
3628;DHT22;1830;49.000;12.074;2024-02-23T00:08:45;8.60;99.90
3628;DHT22;1830;49.000;12.074;2024-02-23T00:11:12;8.50;99.90
3628;DHT22;1830;49.000;12.074;2024-02-23T00:13:39;8.60;99.90
3628;DHT22;1830;49.000;12.074;2024-02-23T00:16:06;8.60;99.90
3628;DHT22;1830;49.000;12.074;2024-02-23T00:18:33;8.50;99.90
3628;DHT22;1830;49.000;12.074;2024-02-23T00:21:00;8.60;99.90
3628;DHT22;1830;49.000;12.074;2024-02-23T00:23:28;8.60;99.90
3628;DHT22;1830;49.000;12.074;2024-02-23T00:25:55;8.60;99.90
3628;DHT22;1830;49.000;12.074;2024-02-23T00:28:22;8.50;99.90
3628;DHT22;1830;49.000;12.074;2024-02-23T00:30:49;8.50;99.90
3628;DHT22;1830;49.000;12.074;2024-02-23T00:33:15;8.50;99.90
3628;DHT22;1830;49.000;12.074;2024-02-23T00:35:42;8.60;99.90
3628;DHT22;1830;49.000;12.074;2024-02-23T00:38:09;8.60;99.90
3628;DHT22;1830;49.000;12.074;2024-02-23T00:40:38;8.50;99.90
3628;DHT22;1830;49.000;12.074;2024-02-23T00:43:04;8.50;99.90
3628;DHT22;1830;49.000;12.074;2024-02-23T00:45:31;8.50;99.90
3628;DHT22;1830;49.000;12.074;2024-02-23T00:47:58;8.40;99.90
3628;DHT22;1830;49.000;12.074;2024-02-23T00:50:25;8.40;99.90
3628;DHT22;1830;49.000;12.074;2024-02-23T00:52:52;8.40;99.90
3628;DHT22;1830;49.000;12.074;2024-02-23T00:55:19;8.40;99.90
3628;DHT22;1830;49.000;12.074;2024-02-23T00:57:48;8.30;99.90
3628;DHT22;1830;49.000;12.074;2024-02-23T01:00:15;8.30;99.90
3628;DHT22;1830;49.000;12.074;2024-02-23T01:02:42;8.30;99.90
3628;DHT22;1830;49.000;12.074;2024-02-23T01:05:09;8.30;99.90
3628;DHT22;1830;49.000;12.074;2024-02-23T01:07:36;8.30;99.90
3628;DHT22;1830;49.000;12.074;2024-02-23T01:10:03;8.30;99.90
3628;DHT22;1830;49.000;12.074;2024-02-23T01:12:30;8.30;99.90
3628;DHT22;1830;49.000;12.074;2024-02-23T01:14:58;8.40;99.90
3628;DHT22;1830;49.000;12.074;2024-02-23T01:17:25;8.40;99.90
3628;DHT22;1830;49.000;12.074;2024-02-23T01:19:52;8.40;99.90
3628;DHT22;1830;49.000;12.074;2024-02-23T01:22:19;8.50;99.90
3628;DHT22;1830;49.000;12.074;2024-02-23T01:24:45;8.50;99.90
3628;DHT22;1830;49.000;12.074;2024-02-23T01:27:12;8.50;99.90
3628;DHT22;1830;49.000;12.074;2024-02-23T01:29:39;8.50;99.90
3628;DHT22;1830;49.000;12.074;2024-02-23T01:32:07;8.50;99.90
3628;DHT22;1830;49.000;12.074;2024-02-23T01:34:34;8.40;99.90
3628;DHT22;1830;49.000;12.074;2024-02-23T01:37:01;8.30;99.90
3628;DHT22;1830;49.000;12.074;2024-02-23T01:39:28;8.40;99.90
3628;DHT22;1830;49.000;12.074;2024-02-23T01:41:55;8.40;99.90
3628;DHT22;1830;49.000;12.074;2024-02-23T01:44:22;8.10;99.90
3628;DHT22;1830;49.000;12.074;2024-02-23T01:46:49;7.70;99.90
3628;DHT22;1830;49.000;12.074;2024-02-23T01:49:18;7.40;99.90
3628;DHT22;1830;49.000;12.074;2024-02-23T01:51:45;7.20;99.90
3628;DHT22;1830;49.000;12.074;2024-02-23T01:54:12;7.00;99.90
3628;DHT22;1830;49.000;12.074;2024-02-23T01:56:39;7.10;99.90
3628;DHT22;1830;49.000;12.074;2024-02-23T01:59:06;7.00;99.90
3628;DHT22;1830;49.000;12.074;2024-02-23T02:01:34;6.90;99.90
3628;DHT22;1830;49.000;12.074;2024-02-23T02:04:00;6.70;99.90
3628;DHT22;1830;49.000;12.074;2024-02-23T02:06:28;6.70;99.90
3628;DHT22;1830;49.000;12.074;2024-02-23T02:08:55;6.50;99.90
3628;DHT22;1830;49.000;12.074;2024-02-23T02:11:22;6.40;99.90
3628;DHT22;1830;49.000;12.074;2024-02-23T02:13:49;6.40;99.90
3628;DHT22;1830;49.000;12.074;2024-02-23T02:16:16;6.30;99.90
3628;DHT22;1830;49.000;12.074;2024-02-23T02:18:42;6.40;99.90
3628;DHT22;1830;49.000;12.074;2024-02-23T02:21:11;6.30;99.90
3628;DHT22;1830;49.000;12.074;2024-02-23T02:23:39;6.30;99.90
3628;DHT22;1830;49.000;12.074;2024-02-23T02:26:06;6.30;99.90
3628;DHT22;1830;49.000;12.074;2024-02-23T02:28:33;6.20;99.90
3628;DHT22;1830;49.000;12.074;2024-02-23T02:31:00;6.00;99.90
3628;DHT22;1830;49.000;12.074;2024-02-23T02:33:27;6.10;99.90
3628;DHT22;1830;49.000;12.074;2024-02-23T02:35:53;6.20;99.90
3628;DHT22;1830;49.000;12.074;2024-02-23T02:38:20;6.20;99.90
3628;DHT22;1830;49.000;12.074;2024-02-23T02:40:48;6.10;99.90
3628;DHT22;1830;49.000;12.074;2024-02-23T02:43:15;5.80;99.90
3628;DHT22;1830;49.000;12.074;2024-02-23T02:45:42;5.80;99.90
3628;DHT22;1830;49.000;12.074;2024-02-23T02:48:09;5.90;99.90
3628;DHT22;1830;49.000;12.074;2024-02-23T02:50:36;6.00;99.90
3628;DHT22;1830;49.000;12.074;2024-02-23T02:53:03;6.00;99.90
3628;DHT22;1830;49.000;12.074;2024-02-23T02:55:30;6.10;99.90
3628;DHT22;1830;49.000;12.074;2024-02-23T02:57:58;5.90;99.90
3628;DHT22;1830;49.000;12.074;2024-02-23T03:00:25;5.90;99.90
3628;DHT22;1830;49.000;12.074;2024-02-23T03:02:52;5.90;99.90
3628;DHT22;1830;49.000;12.074;2024-02-23T03:05:19;6.10;99.90
3628;DHT22;1830;49.000;12.074;2024-02-23T03:07:46;6.00;99.90
3628;DHT22;1830;49.000;12.074;2024-02-23T03:10:13;5.90;99.90
3628;DHT22;1830;49.000;12.074;2024-02-23T03:12:39;6.00;99.90
3628;DHT22;1830;49.000;12.074;2024-02-23T03:15:08;5.70;99.90
3628;DHT22;1830;49.000;12.074;2024-02-23T03:17:35;5.60;99.90
3628;DHT22;1830;49.000;12.074;2024-02-23T03:20:02;5.50;99.90
3628;DHT22;1830;49.000;12.074;2024-02-23T03:22:34;5.60;99.90
3628;DHT22;1830;49.000;12.074;2024-02-23T03:25:00;5.80;99.90
3628;DHT22;1830;49.000;12.074;2024-02-23T03:27:34;5.60;99.90
3628;DHT22;1830;49.000;12.074;2024-02-23T03:30:01;5.50;99.90
3628;DHT22;1830;49.000;12.074;2024-02-23T03:32:29;5.60;99.90
3628;DHT22;1830;49.000;12.074;2024-02-23T03:35:01;5.70;99.90
3628;DHT22;1830;49.000;12.074;2024-02-23T03:37:28;5.60;99.90
3628;DHT22;1830;49.000;12.074;2024-02-23T03:39:55;5.50;99.90
3628;DHT22;1830;49.000;12.074;2024-02-23T03:42:22;5.50;99.90
3628;DHT22;1830;49.000;12.074;2024-02-23T03:44:48;5.60;99.90
3628;DHT22;1830;49.000;12.074;2024-02-23T03:47:16;5.70;99.90
3628;DHT22;1830;49.000;12.074;2024-02-23T03:49:44;5.70;99.90
3628;DHT22;1830;49.000;12.074;2024-02-23T03:52:11;5.70;99.90
3628;DHT22;1830;49.000;12.074;2024-02-23T03:54:37;5.60;99.90
3628;DHT22;1830;49.000;12.074;2024-02-23T03:57:04;5.60;99.90
3628;DHT22;1830;49.000;12.074;2024-02-23T03:59:31;5.60;99.90
3628;DHT22;1830;49.000;12.074;2024-02-23T04:01:58;5.50;99.90
3628;DHT22;1830;49.000;12.074;2024-02-23T04:04:25;5.50;99.90
3628;DHT22;1830;49.000;12.074;2024-02-23T04:06:53;5.50;99.90
3628;DHT22;1830;49.000;12.074;2024-02-23T04:09:20;5.40;99.90
3628;DHT22;1830;49.000;12.074;2024-02-23T04:11:48;5.50;99.90
3628;DHT22;1830;49.000;12.074;2024-02-23T04:14:15;5.60;99.90
3628;DHT22;1830;49.000;12.074;2024-02-23T04:16:41;5.60;99.90
3628;DHT22;1830;49.000;12.074;2024-02-23T04:19:08;5.50;99.90
3628;DHT22;1830;49.000;12.074;2024-02-23T04:21:35;5.60;99.90
3628;DHT22;1830;49.000;12.074;2024-02-23T04:24:03;5.60;99.90
3628;DHT22;1830;49.000;12.074;2024-02-23T04:26:30;5.70;99.90
3628;DHT22;1830;49.000;12.074;2024-02-23T04:28:57;5.70;99.90
3628;DHT22;1830;49.000;12.074;2024-02-23T04:31:24;5.80;99.90
3628;DHT22;1830;49.000;12.074;2024-02-23T04:33:51;5.70;99.90
3628;DHT22;1830;49.000;12.074;2024-02-23T04:36:19;5.60;99.90
3628;DHT22;1830;49.000;12.074;2024-02-23T04:38:46;5.70;99.90
3628;DHT22;1830;49.000;12.074;2024-02-23T04:41:14;5.70;99.90
3628;DHT22;1830;49.000;12.074;2024-02-23T04:43:45;5.80;99.90
3628;DHT22;1830;49.000;12.074;2024-02-23T04:46:12;5.70;99.90
3628;DHT22;1830;49.000;12.074;2024-02-23T04:48:39;5.60;99.90
3628;DHT22;1830;49.000;12.074;2024-02-23T04:51:06;5.60;99.90
3628;DHT22;1830;49.000;12.074;2024-02-23T04:53:36;5.70;99.90
3628;DHT22;1830;49.000;12.074;2024-02-23T04:56:04;5.70;99.90
3628;DHT22;1830;49.000;12.074;2024-02-23T04:58:32;5.80;99.90
3628;DHT22;1830;49.000;12.074;2024-02-23T05:00:59;5.70;99.90
3628;DHT22;1830;49.000;12.074;2024-02-23T05:03:25;5.70;99.90
3628;DHT22;1830;49.000;12.074;2024-02-23T05:05:52;5.50;99.90
3628;DHT22;1830;49.000;12.074;2024-02-23T05:08:20;5.50;99.90
3628;DHT22;1830;49.000;12.074;2024-02-23T05:10:47;5.40;99.90
3628;DHT22;1830;49.000;12.074;2024-02-23T05:13:13;5.30;99.90
3628;DHT22;1830;49.000;12.074;2024-02-23T05:15:42;5.30;99.90
3628;DHT22;1830;49.000;12.074;2024-02-23T05:18:08;5.20;99.90
3628;DHT22;1830;49.000;12.074;2024-02-23T05:20:35;5.30;99.90
3628;DHT22;1830;49.000;12.074;2024-02-23T05:23:02;5.30;99.90
3628;DHT22;1830;49.000;12.074;2024-02-23T05:25:29;5.30;99.90
3628;DHT22;1830;49.000;12.074;2024-02-23T05:27:56;5.20;99.90
3628;DHT22;1830;49.000;12.074;2024-02-23T05:30:23;5.30;99.90
3628;DHT22;1830;49.000;12.074;2024-02-23T05:32:51;5.40;99.90
3628;DHT22;1830;49.000;12.074;2024-02-23T05:35:18;5.50;99.90
3628;DHT22;1830;49.000;12.074;2024-02-23T05:37:45;5.40;99.90
3628;DHT22;1830;49.000;12.074;2024-02-23T05:40:11;5.50;99.90
3628;DHT22;1830;49.000;12.074;2024-02-23T05:42:38;5.60;99.90
3628;DHT22;1830;49.000;12.074;2024-02-23T05:45:07;5.50;99.90
3628;DHT22;1830;49.000;12.074;2024-02-23T05:47:34;5.50;99.90
3628;DHT22;1830;49.000;12.074;2024-02-23T05:50:03;5.60;99.90
3628;DHT22;1830;49.000;12.074;2024-02-23T05:52:31;5.60;99.90
3628;DHT22;1830;49.000;12.074;2024-02-23T05:54:58;5.40;99.90
3628;DHT22;1830;49.000;12.074;2024-02-23T05:57:25;5.30;99.90
3628;DHT22;1830;49.000;12.074;2024-02-23T05:59:52;5.40;99.90
3628;DHT22;1830;49.000;12.074;2024-02-23T06:02:19;5.20;99.90
3628;DHT22;1830;49.000;12.074;2024-02-23T06:04:46;5.30;99.90
3628;DHT22;1830;49.000;12.074;2024-02-23T06:07:14;5.40;99.90
3628;DHT22;1830;49.000;12.074;2024-02-23T06:09:41;5.40;99.90
3628;DHT22;1830;49.000;12.074;2024-02-23T06:12:09;5.30;99.90
3628;DHT22;1830;49.000;12.074;2024-02-23T06:14:35;5.30;99.90
3628;DHT22;1830;49.000;12.074;2024-02-23T06:17:02;5.30;99.90
3628;DHT22;1830;49.000;12.074;2024-02-23T06:19:29;5.30;99.90
3628;DHT22;1830;49.000;12.074;2024-02-23T06:21:56;5.20;99.90
3628;DHT22;1830;49.000;12.074;2024-02-23T06:24:24;5.20;99.90
3628;DHT22;1830;49.000;12.074;2024-02-23T06:26:51;5.20;99.90
3628;DHT22;1830;49.000;12.074;2024-02-23T06:29:18;5.10;99.90
3628;DHT22;1830;49.000;12.074;2024-02-23T06:31:45;5.00;99.90
3628;DHT22;1830;49.000;12.074;2024-02-23T06:34:14;4.90;99.90
3628;DHT22;1830;49.000;12.074;2024-02-23T06:36:41;5.00;99.90
3628;DHT22;1830;49.000;12.074;2024-02-23T06:39:08;4.90;99.90
3628;DHT22;1830;49.000;12.074;2024-02-23T06:41:38;4.90;99.90
3628;DHT22;1830;49.000;12.074;2024-02-23T06:44:05;4.90;99.90
3628;DHT22;1830;49.000;12.074;2024-02-23T06:46:32;5.00;99.90
3628;DHT22;1830;49.000;12.074;2024-02-23T06:48:58;4.90;99.90
3628;DHT22;1830;49.000;12.074;2024-02-23T06:51:25;4.90;99.90
3628;DHT22;1830;49.000;12.074;2024-02-23T06:53:52;4.90;99.90
3628;DHT22;1830;49.000;12.074;2024-02-23T06:56:19;4.90;99.90
3628;DHT22;1830;49.000;12.074;2024-02-23T06:58:47;5.00;99.90
3628;DHT22;1830;49.000;12.074;2024-02-23T07:01:14;4.90;99.90
3628;DHT22;1830;49.000;12.074;2024-02-23T07:03:41;4.90;99.90
3628;DHT22;1830;49.000;12.074;2024-02-23T07:06:10;4.90;99.90
3628;DHT22;1830;49.000;12.074;2024-02-23T07:08:37;4.90;99.90
3628;DHT22;1830;49.000;12.074;2024-02-23T07:11:04;5.00;99.90
3628;DHT22;1830;49.000;12.074;2024-02-23T07:13:31;5.00;99.90
3628;DHT22;1830;49.000;12.074;2024-02-23T07:16:00;5.00;99.90
3628;DHT22;1830;49.000;12.074;2024-02-23T07:18:27;5.20;99.90
3628;DHT22;1830;49.000;12.074;2024-02-23T07:20:54;5.40;99.90
3628;DHT22;1830;49.000;12.074;2024-02-23T07:23:21;5.50;99.90
3628;DHT22;1830;49.000;12.074;2024-02-23T07:25:48;5.50;99.90
3628;DHT22;1830;49.000;12.074;2024-02-23T07:28:16;5.50;99.90
3628;DHT22;1830;49.000;12.074;2024-02-23T07:30:45;5.50;99.90
3628;DHT22;1830;49.000;12.074;2024-02-23T07:33:13;5.40;99.90
3628;DHT22;1830;49.000;12.074;2024-02-23T07:35:40;5.40;99.90
3628;DHT22;1830;49.000;12.074;2024-02-23T07:38:06;5.40;99.90
3628;DHT22;1830;49.000;12.074;2024-02-23T07:40:33;5.50;99.90
3628;DHT22;1830;49.000;12.074;2024-02-23T07:43:00;5.30;99.90
3628;DHT22;1830;49.000;12.074;2024-02-23T07:45:27;5.30;99.90
3628;DHT22;1830;49.000;12.074;2024-02-23T07:47:53;5.30;99.90
3628;DHT22;1830;49.000;12.074;2024-02-23T07:50:22;5.30;99.90
3628;DHT22;1830;49.000;12.074;2024-02-23T07:52:48;5.40;99.90
3628;DHT22;1830;49.000;12.074;2024-02-23T07:55:15;5.30;99.90
3628;DHT22;1830;49.000;12.074;2024-02-23T07:57:42;5.20;99.90
3628;DHT22;1830;49.000;12.074;2024-02-23T08:00:09;5.20;99.90
3628;DHT22;1830;49.000;12.074;2024-02-23T08:02:37;5.30;99.90
3628;DHT22;1830;49.000;12.074;2024-02-23T08:05:04;5.20;99.90
3628;DHT22;1830;49.000;12.074;2024-02-23T08:07:32;5.30;99.90
3628;DHT22;1830;49.000;12.074;2024-02-23T08:09:59;5.30;99.90
3628;DHT22;1830;49.000;12.074;2024-02-23T08:12:26;5.40;99.90
3628;DHT22;1830;49.000;12.074;2024-02-23T08:14:53;5.30;99.90
3628;DHT22;1830;49.000;12.074;2024-02-23T08:17:19;5.30;99.90
3628;DHT22;1830;49.000;12.074;2024-02-23T08:19:47;5.20;99.90
3628;DHT22;1830;49.000;12.074;2024-02-23T08:22:14;5.30;99.90
3628;DHT22;1830;49.000;12.074;2024-02-23T08:24:42;5.30;99.90
3628;DHT22;1830;49.000;12.074;2024-02-23T08:27:08;5.30;99.90
3628;DHT22;1830;49.000;12.074;2024-02-23T08:29:37;5.30;99.90
3628;DHT22;1830;49.000;12.074;2024-02-23T08:32:05;5.20;99.90
3628;DHT22;1830;49.000;12.074;2024-02-23T08:34:32;5.30;99.90
3628;DHT22;1830;49.000;12.074;2024-02-23T08:36:59;5.40;99.90
3628;DHT22;1830;49.000;12.074;2024-02-23T08:39:26;5.50;99.90
3628;DHT22;1830;49.000;12.074;2024-02-23T08:41:55;5.50;99.90
3628;DHT22;1830;49.000;12.074;2024-02-23T08:44:22;5.50;99.90
3628;DHT22;1830;49.000;12.074;2024-02-23T08:46:49;5.60;99.90
3628;DHT22;1830;49.000;12.074;2024-02-23T08:49:15;5.60;99.90
3628;DHT22;1830;49.000;12.074;2024-02-23T08:51:42;5.50;99.90
3628;DHT22;1830;49.000;12.074;2024-02-23T08:54:09;5.60;99.90
3628;DHT22;1830;49.000;12.074;2024-02-23T08:56:37;5.60;99.90
3628;DHT22;1830;49.000;12.074;2024-02-23T08:59:06;5.50;99.90
3628;DHT22;1830;49.000;12.074;2024-02-23T09:01:33;5.60;99.90
3628;DHT22;1830;49.000;12.074;2024-02-23T09:04:00;5.60;99.90
3628;DHT22;1830;49.000;12.074;2024-02-23T09:06:27;5.60;99.90
3628;DHT22;1830;49.000;12.074;2024-02-23T09:08:53;5.70;99.90
3628;DHT22;1830;49.000;12.074;2024-02-23T09:11:20;5.70;99.90
3628;DHT22;1830;49.000;12.074;2024-02-23T09:13:47;5.70;99.90
3628;DHT22;1830;49.000;12.074;2024-02-23T09:16:15;5.80;99.90
3628;DHT22;1830;49.000;12.074;2024-02-23T09:18:43;5.60;99.90
3628;DHT22;1830;49.000;12.074;2024-02-23T09:21:09;5.60;99.90
3628;DHT22;1830;49.000;12.074;2024-02-23T09:23:36;5.60;99.90
3628;DHT22;1830;49.000;12.074;2024-02-23T09:26:09;5.80;99.90
3628;DHT22;1830;49.000;12.074;2024-02-23T09:28:36;5.90;99.90
3628;DHT22;1830;49.000;12.074;2024-02-23T09:31:03;5.90;99.90
3628;DHT22;1830;49.000;12.074;2024-02-23T09:33:31;5.80;99.90
3628;DHT22;1830;49.000;12.074;2024-02-23T09:35:58;5.70;99.90
3628;DHT22;1830;49.000;12.074;2024-02-23T09:38:25;5.70;99.90
3628;DHT22;1830;49.000;12.074;2024-02-23T09:40:51;5.70;99.90
3628;DHT22;1830;49.000;12.074;2024-02-23T09:43:21;5.60;99.90
3628;DHT22;1830;49.000;12.074;2024-02-23T09:45:50;5.60;99.90
3628;DHT22;1830;49.000;12.074;2024-02-23T09:48:18;5.70;99.90
3628;DHT22;1830;49.000;12.074;2024-02-23T09:50:47;5.80;99.90
3628;DHT22;1830;49.000;12.074;2024-02-23T09:53:14;5.80;99.90
3628;DHT22;1830;49.000;12.074;2024-02-23T09:55:43;5.70;99.90
3628;DHT22;1830;49.000;12.074;2024-02-23T09:58:13;5.70;99.90
3628;DHT22;1830;49.000;12.074;2024-02-23T10:00:42;5.60;99.90
3628;DHT22;1830;49.000;12.074;2024-02-23T10:03:09;5.60;99.90
3628;DHT22;1830;49.000;12.074;2024-02-23T10:05:36;5.80;99.90
3628;DHT22;1830;49.000;12.074;2024-02-23T10:08:05;5.90;99.90
3628;DHT22;1830;49.000;12.074;2024-02-23T10:10:33;6.00;99.90
3628;DHT22;1830;49.000;12.074;2024-02-23T10:13:00;6.00;99.90
3628;DHT22;1830;49.000;12.074;2024-02-23T10:15:29;5.90;99.90
3628;DHT22;1830;49.000;12.074;2024-02-23T10:17:56;5.90;99.90
3628;DHT22;1830;49.000;12.074;2024-02-23T10:20:23;6.00;99.90
3628;DHT22;1830;49.000;12.074;2024-02-23T10:22:50;5.90;99.90
3628;DHT22;1830;49.000;12.074;2024-02-23T10:25:20;6.00;99.90
3628;DHT22;1830;49.000;12.074;2024-02-23T10:27:47;6.10;99.90
3628;DHT22;1830;49.000;12.074;2024-02-23T10:30:14;6.10;99.90
3628;DHT22;1830;49.000;12.074;2024-02-23T10:32:41;6.20;99.90
3628;DHT22;1830;49.000;12.074;2024-02-23T10:35:13;6.10;99.90
3628;DHT22;1830;49.000;12.074;2024-02-23T10:37:42;6.30;99.90
3628;DHT22;1830;49.000;12.074;2024-02-23T10:40:11;6.30;99.90
3628;DHT22;1830;49.000;12.074;2024-02-23T10:42:41;6.30;99.90
3628;DHT22;1830;49.000;12.074;2024-02-23T10:45:10;6.50;99.90
3628;DHT22;1830;49.000;12.074;2024-02-23T10:47:37;6.50;99.90
3628;DHT22;1830;49.000;12.074;2024-02-23T10:50:05;6.40;99.90
3628;DHT22;1830;49.000;12.074;2024-02-23T10:52:33;6.40;99.90
3628;DHT22;1830;49.000;12.074;2024-02-23T10:55:01;6.40;99.90
3628;DHT22;1830;49.000;12.074;2024-02-23T10:57:30;6.30;99.90
3628;DHT22;1830;49.000;12.074;2024-02-23T10:59:59;6.40;99.90
3628;DHT22;1830;49.000;12.074;2024-02-23T11:02:28;6.30;99.90
3628;DHT22;1830;49.000;12.074;2024-02-23T11:04:57;6.10;99.90
3628;DHT22;1830;49.000;12.074;2024-02-23T11:07:25;6.20;99.90
3628;DHT22;1830;49.000;12.074;2024-02-23T11:09:54;6.10;99.90
3628;DHT22;1830;49.000;12.074;2024-02-23T11:12:25;6.30;99.90
3628;DHT22;1830;49.000;12.074;2024-02-23T11:14:56;6.30;99.90
3628;DHT22;1830;49.000;12.074;2024-02-23T11:17:30;6.30;99.90
3628;DHT22;1830;49.000;12.074;2024-02-23T11:19:57;6.20;99.90
3628;DHT22;1830;49.000;12.074;2024-02-23T11:22:24;6.30;99.90
3628;DHT22;1830;49.000;12.074;2024-02-23T11:24:51;6.50;99.90
3628;DHT22;1830;49.000;12.074;2024-02-23T11:27:19;6.60;99.90
3628;DHT22;1830;49.000;12.074;2024-02-23T11:29:46;6.70;99.90
3628;DHT22;1830;49.000;12.074;2024-02-23T11:32:16;6.70;99.90
3628;DHT22;1830;49.000;12.074;2024-02-23T11:34:55;6.70;99.90
3628;DHT22;1830;49.000;12.074;2024-02-23T11:37:23;6.80;99.90
3628;DHT22;1830;49.000;12.074;2024-02-23T11:39:50;6.90;99.90
3628;DHT22;1830;49.000;12.074;2024-02-23T11:42:18;6.70;99.90
3628;DHT22;1830;49.000;12.074;2024-02-23T11:44:44;6.60;99.90
3628;DHT22;1830;49.000;12.074;2024-02-23T11:47:11;6.60;99.90
3628;DHT22;1830;49.000;12.074;2024-02-23T11:49:39;6.60;99.90
3628;DHT22;1830;49.000;12.074;2024-02-23T11:52:07;6.60;99.90
3628;DHT22;1830;49.000;12.074;2024-02-23T11:54:34;6.70;99.90
3628;DHT22;1830;49.000;12.074;2024-02-23T11:57:01;6.80;99.90
3628;DHT22;1830;49.000;12.074;2024-02-23T11:59:28;6.90;99.90
3628;DHT22;1830;49.000;12.074;2024-02-23T12:01:55;6.90;99.90
3628;DHT22;1830;49.000;12.074;2024-02-23T12:04:22;6.80;99.90
3628;DHT22;1830;49.000;12.074;2024-02-23T12:06:49;6.70;99.90
3628;DHT22;1830;49.000;12.074;2024-02-23T12:09:17;6.80;99.90
3628;DHT22;1830;49.000;12.074;2024-02-23T12:11:44;6.70;99.90
3628;DHT22;1830;49.000;12.074;2024-02-23T12:14:11;6.80;99.90
3628;DHT22;1830;49.000;12.074;2024-02-23T12:16:39;6.80;99.90
3628;DHT22;1830;49.000;12.074;2024-02-23T12:19:08;6.80;99.90
3628;DHT22;1830;49.000;12.074;2024-02-23T12:21:35;6.80;99.90
3628;DHT22;1830;49.000;12.074;2024-02-23T12:24:04;7.00;99.90
3628;DHT22;1830;49.000;12.074;2024-02-23T12:26:33;6.90;99.90
3628;DHT22;1830;49.000;12.074;2024-02-23T12:29:00;6.90;99.90
3628;DHT22;1830;49.000;12.074;2024-02-23T12:31:28;7.00;99.90
3628;DHT22;1830;49.000;12.074;2024-02-23T12:33:57;6.90;99.90
3628;DHT22;1830;49.000;12.074;2024-02-23T12:36:24;7.10;99.90
3628;DHT22;1830;49.000;12.074;2024-02-23T12:38:51;7.00;99.90
3628;DHT22;1830;49.000;12.074;2024-02-23T12:41:17;7.10;99.90
3628;DHT22;1830;49.000;12.074;2024-02-23T12:43:46;7.00;99.90
3628;DHT22;1830;49.000;12.074;2024-02-23T12:46:12;7.00;99.90
3628;DHT22;1830;49.000;12.074;2024-02-23T12:48:39;6.90;99.90
3628;DHT22;1830;49.000;12.074;2024-02-23T12:51:08;7.00;99.90
3628;DHT22;1830;49.000;12.074;2024-02-23T12:53:36;7.00;99.90
3628;DHT22;1830;49.000;12.074;2024-02-23T12:56:04;7.00;99.90
3628;DHT22;1830;49.000;12.074;2024-02-23T12:58:31;6.90;99.90
3628;DHT22;1830;49.000;12.074;2024-02-23T13:00:59;6.80;99.90
3628;DHT22;1830;49.000;12.074;2024-02-23T13:03:27;6.90;99.90
3628;DHT22;1830;49.000;12.074;2024-02-23T13:05:54;6.90;99.90
3628;DHT22;1830;49.000;12.074;2024-02-23T13:08:21;7.00;99.90
3628;DHT22;1830;49.000;12.074;2024-02-23T13:10:48;7.00;99.90
3628;DHT22;1830;49.000;12.074;2024-02-23T13:13:15;7.00;99.90
3628;DHT22;1830;49.000;12.074;2024-02-23T13:15:42;7.00;99.90
3628;DHT22;1830;49.000;12.074;2024-02-23T13:18:11;6.90;99.90
3628;DHT22;1830;49.000;12.074;2024-02-23T13:20:38;6.90;99.90
3628;DHT22;1830;49.000;12.074;2024-02-23T13:23:07;6.70;99.90
3628;DHT22;1830;49.000;12.074;2024-02-23T13:25:34;6.80;99.90
3628;DHT22;1830;49.000;12.074;2024-02-23T13:28:01;6.90;99.90
3628;DHT22;1830;49.000;12.074;2024-02-23T13:30:28;6.80;99.90
3628;DHT22;1830;49.000;12.074;2024-02-23T13:32:54;6.70;99.90
3628;DHT22;1830;49.000;12.074;2024-02-23T13:35:23;6.50;99.90
3628;DHT22;1830;49.000;12.074;2024-02-23T13:37:50;6.50;99.90
3628;DHT22;1830;49.000;12.074;2024-02-23T13:40:17;6.50;99.90
3628;DHT22;1830;49.000;12.074;2024-02-23T13:42:44;6.60;99.90
3628;DHT22;1830;49.000;12.074;2024-02-23T13:45:15;6.70;99.90
3628;DHT22;1830;49.000;12.074;2024-02-23T13:47:43;6.80;99.90
3628;DHT22;1830;49.000;12.074;2024-02-23T13:50:11;6.80;99.90
3628;DHT22;1830;49.000;12.074;2024-02-23T13:52:40;6.80;99.90
3628;DHT22;1830;49.000;12.074;2024-02-23T13:55:08;6.90;99.90
3628;DHT22;1830;49.000;12.074;2024-02-23T13:57:35;6.90;99.90
3628;DHT22;1830;49.000;12.074;2024-02-23T14:00:03;6.90;99.90
3628;DHT22;1830;49.000;12.074;2024-02-23T14:02:31;7.00;99.90
3628;DHT22;1830;49.000;12.074;2024-02-23T14:05:01;7.00;99.90
3628;DHT22;1830;49.000;12.074;2024-02-23T14:07:29;7.00;99.90
3628;DHT22;1830;49.000;12.074;2024-02-23T14:09:58;7.00;99.90
3628;DHT22;1830;49.000;12.074;2024-02-23T14:12:25;7.00;99.90
3628;DHT22;1830;49.000;12.074;2024-02-23T14:14:53;7.00;99.90
3628;DHT22;1830;49.000;12.074;2024-02-23T14:17:20;7.00;99.90
3628;DHT22;1830;49.000;12.074;2024-02-23T14:19:46;6.90;99.90
3628;DHT22;1830;49.000;12.074;2024-02-23T14:22:13;6.90;99.90
3628;DHT22;1830;49.000;12.074;2024-02-23T14:24:40;7.00;99.90
3628;DHT22;1830;49.000;12.074;2024-02-23T14:27:08;7.10;99.90
3628;DHT22;1830;49.000;12.074;2024-02-23T14:29:35;7.00;99.90
3628;DHT22;1830;49.000;12.074;2024-02-23T14:32:02;7.00;99.90
3628;DHT22;1830;49.000;12.074;2024-02-23T14:34:29;7.10;99.90
3628;DHT22;1830;49.000;12.074;2024-02-23T14:36:58;7.10;99.90
3628;DHT22;1830;49.000;12.074;2024-02-23T14:39:25;7.10;99.90
3628;DHT22;1830;49.000;12.074;2024-02-23T14:41:52;7.00;99.90
3628;DHT22;1830;49.000;12.074;2024-02-23T14:44:20;7.00;99.90
3628;DHT22;1830;49.000;12.074;2024-02-23T14:46:47;7.00;99.90
3628;DHT22;1830;49.000;12.074;2024-02-23T14:49:13;7.00;99.90
3628;DHT22;1830;49.000;12.074;2024-02-23T14:51:40;7.00;99.90
3628;DHT22;1830;49.000;12.074;2024-02-23T14:54:08;7.00;99.90
3628;DHT22;1830;49.000;12.074;2024-02-23T14:56:35;6.90;99.90
3628;DHT22;1830;49.000;12.074;2024-02-23T14:59:02;6.80;99.90
3628;DHT22;1830;49.000;12.074;2024-02-23T15:01:30;6.90;99.90
3628;DHT22;1830;49.000;12.074;2024-02-23T15:03:57;7.00;99.90
3628;DHT22;1830;49.000;12.074;2024-02-23T15:06:24;7.00;99.90
3628;DHT22;1830;49.000;12.074;2024-02-23T15:08:52;7.00;99.90
3628;DHT22;1830;49.000;12.074;2024-02-23T15:11:19;7.00;99.90
3628;DHT22;1830;49.000;12.074;2024-02-23T15:13:47;7.10;99.90
3628;DHT22;1830;49.000;12.074;2024-02-23T15:16:13;7.00;99.90
3628;DHT22;1830;49.000;12.074;2024-02-23T15:18:42;7.10;99.90
3628;DHT22;1830;49.000;12.074;2024-02-23T15:21:08;7.00;99.90
3628;DHT22;1830;49.000;12.074;2024-02-23T15:23:37;7.00;99.90
3628;DHT22;1830;49.000;12.074;2024-02-23T15:26:04;6.90;99.90
3628;DHT22;1830;49.000;12.074;2024-02-23T15:28:31;7.00;99.90
3628;DHT22;1830;49.000;12.074;2024-02-23T15:30:57;6.80;99.90
3628;DHT22;1830;49.000;12.074;2024-02-23T15:33:24;6.90;99.90
3628;DHT22;1830;49.000;12.074;2024-02-23T15:35:52;6.90;99.90
3628;DHT22;1830;49.000;12.074;2024-02-23T15:38:19;6.80;99.90
3628;DHT22;1830;49.000;12.074;2024-02-23T15:40:46;6.80;99.90
3628;DHT22;1830;49.000;12.074;2024-02-23T15:43:13;6.80;99.90
3628;DHT22;1830;49.000;12.074;2024-02-23T15:45:40;6.80;99.90
3628;DHT22;1830;49.000;12.074;2024-02-23T15:48:08;6.80;99.90
3628;DHT22;1830;49.000;12.074;2024-02-23T15:50:35;6.70;99.90
3628;DHT22;1830;49.000;12.074;2024-02-23T15:53:03;6.70;99.90
3628;DHT22;1830;49.000;12.074;2024-02-23T15:55:32;6.70;99.90
3628;DHT22;1830;49.000;12.074;2024-02-23T15:57:58;6.70;99.90
3628;DHT22;1830;49.000;12.074;2024-02-23T16:00:25;6.60;99.90
3628;DHT22;1830;49.000;12.074;2024-02-23T16:02:52;6.40;99.90